Espaço - Ciências - Fenômenos Naturais
Meteógrafos Informações Meteorológicas em tempo real

Aeroporto de Uberlândia

Histórico do Tempo
Temperatura atual: 12 graus 53 F    Umidade relativa: 87 %
Velocidade do vento: 07 nós 12 Km/h    Direção: 080 graus E
Ajuste do altímetro ..: 1020 HPA
Visibilidade: Ótima    Tempo presente: Céu Limpo

Observação

Data Hora BRTTempo°CUmidadePressãoVentoVisib.
26/05 - 07:56   Céu Limpo 12° 87% 1020 Leste/12 km/h OK
26/05 - 06:56   Céu Limpo 12° 81% 1019 Este-sudeste/10 km/h OK
26/05 - 05:56   Céu Limpo 13° 71% 1019 Este-sudeste/10 km/h OK
26/05 - 04:56   Céu Limpo 13° 62% 1018 Este-sudeste/14 km/h OK
26/05 - 03:56   Céu Limpo 13° 62% 1019 Este-sudeste/14 km/h OK
26/05 - 02:56   Céu Limpo 13° 66% 1019 Este-sudeste/14 km/h OK
26/05 - 01:56   Céu Limpo 13° 71% 1020 Este-sudeste/16 km/h OK
26/05 - 00:56   Céu Limpo 14° 76% 1020 Este-sudeste/12 km/h OK
25/05 - 23:56   Céu Limpo 14° 82% 1020 Sudeste/9 km/h OK
25/05 - 22:56   Céu Limpo 14° 76% 1020 Sul-sudeste/10 km/h OK
25/05 - 21:56   Céu Limpo 16° 72% 1019 Sul/10 km/h OK
25/05 - 20:56   Céu Limpo 17° 72% 1019 Sul-sudoeste/10 km/h OK
25/05 - 19:56   Céu Limpo 19° 68% 1018 Sul-sudoeste/9 km/h OK
25/05 - 18:56   Céu Limpo 21° 60% 1018 Sudoeste/7 km/h OK
25/05 - 17:56   Céu Limpo 23° 53% 1018 Oeste-sudoeste/9 km/h OK
25/05 - 16:56   Céu Limpo 23° 57% 1018 Oeste-sudoeste/12 km/h OK
25/05 - 15:56   Céu Limpo 23° 53% 1018 Oeste/9 km/h OK
25/05 - 14:56   Céu Limpo 23° 53% 1018 Oeste-sudoeste/10 km/h OK
25/05 - 13:56   Céu Limpo 21° 60% 1019 Sudoeste/10 km/h OK
25/05 - 12:56   Céu Limpo 21° 60% 1020 Sul-sudoeste/9 km/h OK
25/05 - 11:56   Parcialmente Nublado 18° 68% 1021 Sul/9 km/h OK
25/05 - 10:56   Parcialmente Nublado 18° 68% 1021 Sul/9 km/h OK
25/05 - 09:56   Parcialmente Nublado 16° 77% 1021 Sul-sudeste/14 km/h OK
25/05 - 08:56   Parcialmente Nublado 15° 82% 1020 Sul/16 km/h OK


Apolo11.com - Todos os direitos reservados - 2000 - 2019
Política de Privacidade   |     Termo de Uso e Licenciamento   |  -   Entre em Contato

"Deixe que me odeiem, de maneira que me temam!" - Calígula